createdAt,value
2017-10-31T00:01:01.439Z,6.80
2017-10-31T00:03:29.795Z,7.07
2017-10-31T00:05:58.151Z,6.80
2017-10-31T00:08:27.314Z,7.33
2017-10-31T00:10:55.703Z,7.27
2017-10-31T00:13:24.054Z,6.50
2017-10-31T00:15:52.416Z,6.80
2017-10-31T00:18:21.821Z,8.50
2017-10-31T00:20:50.171Z,7.83
2017-10-31T00:23:18.562Z,7.43
2017-10-31T00:25:46.913Z,8.43
2017-10-31T00:28:16.036Z,8.30
2017-10-31T00:30:44.413Z,7.73
2017-10-31T00:33:12.763Z,7.37
2017-10-31T00:35:41.898Z,7.70
2017-10-31T00:38:10.287Z,8.40
2017-10-31T00:40:38.645Z,7.23
2017-10-31T00:43:09.028Z,7.50
2017-10-31T00:45:37.415Z,7.93
2017-10-31T00:48:07.227Z,7.80
2017-10-31T00:50:36.367Z,8.23
2017-10-31T00:53:06.960Z,8.37
2017-10-31T00:55:36.078Z,7.23
2017-10-31T00:58:04.462Z,7.50
2017-10-31T01:00:33.674Z,8.70
2017-10-31T01:03:02.031Z,8.50
2017-10-31T01:05:30.421Z,7.70
2017-10-31T01:07:58.789Z,7.17
2017-10-31T01:10:27.144Z,8.23
2017-10-31T01:12:57.584Z,8.13
2017-10-31T01:15:25.936Z,7.40
2017-10-31T01:17:55.050Z,7.20
2017-10-31T01:20:23.443Z,7.67
2017-10-31T01:22:51.798Z,8.33
2017-10-31T01:25:20.147Z,7.97
2017-10-31T01:27:49.470Z,7.60
2017-10-31T01:30:18.590Z,7.53
2017-10-31T01:32:46.942Z,7.37
2017-10-31T01:35:16.096Z,7.73
2017-10-31T01:37:44.447Z,7.67
2017-10-31T01:40:12.814Z,8.07
2017-10-31T01:42:42.404Z,6.83
2017-10-31T01:45:10.756Z,7.67
2017-10-31T01:47:40.044Z,7.70
2017-10-31T01:50:08.436Z,8.13
2017-10-31T01:52:37.561Z,8.07
2017-10-31T01:55:06.172Z,7.63
2017-10-31T01:57:34.302Z,7.43
2017-10-31T02:00:02.315Z,7.77
2017-10-31T02:02:29.974Z,9.30
2017-10-31T02:04:58.385Z,9.10
2017-10-31T02:07:26.998Z,8.17
2017-10-31T02:09:55.359Z,7.43
2017-10-31T02:12:24.168Z,8.10
2017-10-31T02:14:52.519Z,8.57
2017-10-31T02:17:21.292Z,8.87
2017-10-31T02:19:48.973Z,8.23
2017-10-31T02:22:18.894Z,8.83
2017-10-31T02:24:47.340Z,7.87
2017-10-31T02:27:16.715Z,9.03
2017-10-31T02:29:44.764Z,8.67
2017-10-31T02:32:12.767Z,9.67
2017-10-31T02:34:40.772Z,8.30
2017-10-31T02:37:09.219Z,9.27
2017-10-31T02:39:36.917Z,7.83
2017-10-31T02:42:06.674Z,9.50
2017-10-31T02:44:35.354Z,9.00
2017-10-31T02:47:05.062Z,8.20
2017-10-31T02:49:32.731Z,9.47
2017-10-31T02:52:01.366Z,8.13
2017-10-31T02:54:29.827Z,7.50
2017-10-31T02:56:58.437Z,9.50
2017-10-31T02:59:26.854Z,7.97
2017-10-31T03:01:55.878Z,7.63
2017-10-31T03:04:23.537Z,8.77
2017-10-31T03:06:55.132Z,7.93
2017-10-31T03:09:22.820Z,7.90
2017-10-31T03:11:52.526Z,7.80
2017-10-31T03:14:20.551Z,7.93
2017-10-31T03:16:51.004Z,8.27
2017-10-31T03:19:18.666Z,7.27
2017-10-31T03:21:47.465Z,8.10
2017-10-31T03:24:15.127Z,9.07
2017-10-31T03:26:42.791Z,8.20
2017-10-31T03:29:10.937Z,8.43
2017-10-31T03:31:39.006Z,8.80
2017-10-31T03:34:06.666Z,7.40
2017-10-31T03:36:35.359Z,8.60
2017-10-31T03:39:03.017Z,8.73
2017-10-31T03:41:34.283Z,9.30
2017-10-31T03:44:01.938Z,8.50
2017-10-31T03:46:29.599Z,7.87
2017-10-31T03:48:57.290Z,8.13
2017-10-31T03:51:24.954Z,8.40
2017-10-31T03:53:52.874Z,8.73
2017-10-31T03:56:21.575Z,9.07
2017-10-31T03:58:49.235Z,9.27
2017-10-31T04:01:16.899Z,9.87
2017-10-31T04:03:44.586Z,9.77
2017-10-31T04:06:14.234Z,8.43
2017-10-31T04:08:42.504Z,8.37
2017-10-31T04:11:14.696Z,8.87
2017-10-31T04:13:42.697Z,9.20
2017-10-31T04:16:11.092Z,8.40
2017-10-31T04:18:39.442Z,8.87
2017-10-31T04:21:08.780Z,9.13
2017-10-31T04:23:36.818Z,9.10
2017-10-31T04:26:05.622Z,8.90
2017-10-31T04:28:33.989Z,9.37
2017-10-31T04:31:04.369Z,8.13
2017-10-31T04:33:32.727Z,8.77
2017-10-31T04:36:02.477Z,9.03
2017-10-31T04:38:30.978Z,10.13
2017-10-31T04:40:58.637Z,9.20
2017-10-31T04:43:26.995Z,8.37
2017-10-31T04:45:55.034Z,8.70
2017-10-31T04:48:24.150Z,9.27
2017-10-31T04:50:53.501Z,8.23
2017-10-31T04:53:21.873Z,9.03
2017-10-31T04:55:49.531Z,8.83
2017-10-31T04:58:17.222Z,9.20
2017-10-31T05:00:45.478Z,8.37
2017-10-31T05:03:13.874Z,8.67
2017-10-31T05:05:42.997Z,9.33
2017-10-31T05:08:11.003Z,8.63
2017-10-31T05:10:39.630Z,8.13
2017-10-31T05:13:08.751Z,8.27
2017-10-31T05:15:37.145Z,8.43
2017-10-31T05:18:05.499Z,8.70
2017-10-31T05:20:34.851Z,7.73
2017-10-31T05:23:03.238Z,8.50
2017-10-31T05:25:31.613Z,8.87
2017-10-31T05:28:00.223Z,8.37
2017-10-31T05:30:30.339Z,9.03
2017-10-31T05:32:59.460Z,8.90
2017-10-31T05:35:28.091Z,9.70
2017-10-31T05:37:56.483Z,8.60
2017-10-31T05:40:26.582Z,9.27
2017-10-31T05:42:54.932Z,8.97
2017-10-31T05:45:23.318Z,9.27
2017-10-31T05:47:51.675Z,8.47
2017-10-31T05:50:20.028Z,8.70
2017-10-31T05:52:48.406Z,8.97
2017-10-31T05:55:18.695Z,8.43
2017-10-31T05:57:47.090Z,9.30
2017-10-31T06:00:15.863Z,8.70
2017-10-31T06:02:44.215Z,8.53
2017-10-31T06:05:13.570Z,8.77
2017-10-31T06:07:41.922Z,9.03
2017-10-31T06:10:10.286Z,8.90
2017-10-31T06:12:38.670Z,8.63
2017-10-31T06:15:07.039Z,8.63
2017-10-31T06:17:35.398Z,8.00
2017-10-31T06:20:04.423Z,8.40
2017-10-31T06:22:47.530Z,8.10
2017-10-31T06:25:22.375Z,8.33
2017-10-31T06:27:56.325Z,9.33
2017-10-31T06:30:31.071Z,8.97
2017-10-31T06:33:00.234Z,8.73
2017-10-31T06:35:28.586Z,8.27
2017-10-31T06:37:57.742Z,8.40
2017-10-31T06:40:27.065Z,7.77
2017-10-31T06:42:55.423Z,9.20
2017-10-31T06:45:23.810Z,7.43
2017-10-31T06:47:52.170Z,7.53
2017-10-31T06:50:20.522Z,8.47
2017-10-31T06:52:48.886Z,9.33
2017-10-31T06:55:18.255Z,7.73
2017-10-31T06:57:46.634Z,8.40
2017-10-31T07:00:16.955Z,8.10
2017-10-31T07:02:45.307Z,8.23
2017-10-31T07:05:18.383Z,8.50
2017-10-31T07:07:46.738Z,8.30
2017-10-31T07:10:15.093Z,7.30
2017-10-31T07:12:43.723Z,7.97
2017-10-31T07:15:13.099Z,7.73
2017-10-31T07:17:41.450Z,7.80
2017-10-31T07:20:09.811Z,8.07
2017-10-31T07:22:38.182Z,8.17
2017-10-31T07:25:06.538Z,7.30
2017-10-31T07:27:34.935Z,7.70
2017-10-31T07:30:03.295Z,8.13
2017-10-31T07:32:31.650Z,8.23
2017-10-31T07:35:00.034Z,7.73
2017-10-31T07:37:28.387Z,7.93
2017-10-31T07:39:56.771Z,7.97
2017-10-31T07:42:25.146Z,7.43
2017-10-31T07:44:54.514Z,8.13
2017-10-31T07:47:22.907Z,7.90
2017-10-31T07:49:51.529Z,8.10
2017-10-31T07:52:19.887Z,8.23
2017-10-31T07:54:48.276Z,9.47
2017-10-31T07:57:17.178Z,8.97
2017-10-31T07:59:47.643Z,9.40
2017-10-31T08:02:15.996Z,9.87
2017-10-31T08:04:45.319Z,9.23
2017-10-31T08:07:13.703Z,9.87
2017-10-31T08:09:42.055Z,10.67
2017-10-31T08:12:10.407Z,9.27
2017-10-31T08:14:39.898Z,10.43
2017-10-31T08:17:08.250Z,9.47
2017-10-31T08:19:38.387Z,9.00
2017-10-31T08:22:06.784Z,9.43
2017-10-31T08:24:35.134Z,9.87
2017-10-31T08:27:04.251Z,9.80
2017-10-31T08:29:34.733Z,10.03
2017-10-31T08:32:03.094Z,10.43
2017-10-31T08:34:32.131Z,11.60
2017-10-31T08:37:01.053Z,10.83
2017-10-31T08:39:29.666Z,11.13
2017-10-31T08:41:57.335Z,11.17
2017-10-31T08:44:29.260Z,10.40
2017-10-31T08:46:57.267Z,12.23
2017-10-31T08:49:25.754Z,11.20
2017-10-31T08:51:54.107Z,11.93
2017-10-31T08:54:22.458Z,12.03
2017-10-31T08:56:50.852Z,12.17
2017-10-31T08:59:19.210Z,12.37
2017-10-31T09:01:47.571Z,12.10
2017-10-31T09:04:15.971Z,13.43
2017-10-31T09:06:44.324Z,13.70
2017-10-31T09:09:12.678Z,12.87
2017-10-31T09:11:41.279Z,12.30
2017-10-31T09:14:11.371Z,12.00
2017-10-31T09:16:39.731Z,11.47
2017-10-31T09:19:08.126Z,10.70
2017-10-31T09:21:36.484Z,11.93
2017-10-31T09:24:05.092Z,12.33
2017-10-31T09:26:33.484Z,12.03
2017-10-31T09:29:02.604Z,12.47
2017-10-31T09:31:30.963Z,12.50
2017-10-31T09:34:00.361Z,12.33
2017-10-31T09:36:29.476Z,13.30
2017-10-31T09:38:57.843Z,15.10
2017-10-31T09:41:26.221Z,13.47
2017-10-31T09:43:54.575Z,13.70
2017-10-31T09:46:23.736Z,13.00
2017-10-31T09:48:52.094Z,12.97
2017-10-31T09:51:20.455Z,13.43
2017-10-31T09:53:48.843Z,14.10
2017-10-31T09:56:17.206Z,14.33
2017-10-31T09:58:45.562Z,15.87
2017-10-31T10:01:14.203Z,15.33
2017-10-31T10:03:42.564Z,13.90
2017-10-31T10:06:10.915Z,14.53
2017-10-31T10:08:41.223Z,14.87
2017-10-31T10:11:10.351Z,15.30
2017-10-31T10:13:38.718Z,16.40
2017-10-31T10:16:07.075Z,13.83
2017-10-31T10:18:38.599Z,11.83
2017-10-31T10:21:06.954Z,12.97
2017-10-31T10:23:35.316Z,13.00
2017-10-31T10:26:03.720Z,12.03
2017-10-31T10:28:32.418Z,12.77
2017-10-31T10:31:00.795Z,14.27
2017-10-31T10:33:30.106Z,12.33
2017-10-31T10:35:58.784Z,12.50
2017-10-31T10:38:27.217Z,9.83
2017-10-31T10:40:55.558Z,8.57
2017-10-31T10:43:24.734Z,10.60
2017-10-31T10:45:53.091Z,10.03
2017-10-31T10:48:21.438Z,8.83
2017-10-31T10:50:49.846Z,10.43
2017-10-31T10:53:18.207Z,10.00
2017-10-31T10:55:46.559Z,9.57
2017-10-31T10:58:15.211Z,10.13
2017-10-31T11:00:44.123Z,8.35
2017-10-31T11:03:12.551Z,9.00
2017-10-31T11:05:42.610Z,9.60
2017-10-31T11:08:11.745Z,10.60
2017-10-31T11:10:40.096Z,10.87
2017-10-31T11:13:09.354Z,9.80
2017-10-31T11:15:39.190Z,10.97
2017-10-31T11:18:07.539Z,11.30
2017-10-31T11:20:35.577Z,12.07
2017-10-31T11:23:03.931Z,10.30
2017-10-31T11:25:36.299Z,9.97
2017-10-31T11:28:05.424Z,10.53
2017-10-31T11:30:33.816Z,10.03
2017-10-31T11:33:02.162Z,11.07
2017-10-31T11:35:31.178Z,9.97
2017-10-31T11:37:59.674Z,9.63
2017-10-31T11:40:28.031Z,8.60
2017-10-31T11:42:56.382Z,8.80
2017-10-31T11:45:25.535Z,7.27
2017-10-31T11:47:53.888Z,8.33
2017-10-31T11:50:23.266Z,8.03
2017-10-31T11:52:51.655Z,9.20
2017-10-31T11:55:19.666Z,8.13
2017-10-31T11:57:48.017Z,8.37
2017-10-31T12:00:17.867Z,8.37
2017-10-31T12:02:46.252Z,7.87
2017-10-31T12:05:14.615Z,7.53
2017-10-31T12:07:42.291Z,6.47
2017-10-31T12:10:11.406Z,6.97
2017-10-31T12:12:40.151Z,7.27
2017-10-31T12:15:09.458Z,7.60
2017-10-31T12:17:37.807Z,7.03
2017-10-31T12:20:06.384Z,7.90
2017-10-31T12:22:34.391Z,7.30
2017-10-31T12:25:02.766Z,8.87
2017-10-31T12:27:31.152Z,8.57
2017-10-31T12:29:59.514Z,7.70
2017-10-31T12:32:27.875Z,7.57
2017-10-31T12:34:58.242Z,7.37
2017-10-31T12:37:27.363Z,6.37
2017-10-31T12:39:55.754Z,7.27
2017-10-31T12:42:24.119Z,6.30
2017-10-31T12:44:52.470Z,6.40
2017-10-31T12:47:21.606Z,6.43
2017-10-31T12:49:50.110Z,6.50
2017-10-31T12:52:18.370Z,6.17
2017-10-31T12:54:47.632Z,6.43
2017-10-31T12:57:16.023Z,6.40
2017-10-31T12:59:44.371Z,6.97
2017-10-31T13:02:13.495Z,6.20
2017-10-31T13:04:41.866Z,5.63
2017-10-31T13:07:09.518Z,7.03
2017-10-31T13:09:38.290Z,6.57
2017-10-31T13:12:07.411Z,6.77
2017-10-31T13:14:35.446Z,5.30
2017-10-31T13:17:03.463Z,6.13
2017-10-31T13:19:31.814Z,5.87
2017-10-31T13:21:59.858Z,6.13
2017-10-31T13:24:28.211Z,5.90
2017-10-31T13:27:00.391Z,6.13
2017-10-31T13:29:30.046Z,5.70
2017-10-31T13:31:58.722Z,5.40
2017-10-31T13:34:28.119Z,5.57
2017-10-31T13:37:01.067Z,5.37
2017-10-31T13:39:29.719Z,5.20
2017-10-31T13:41:58.354Z,5.67
2017-10-31T13:44:27.018Z,6.23
2017-10-31T13:46:59.083Z,5.63
2017-10-31T13:49:27.690Z,5.73
2017-10-31T13:51:56.721Z,5.97
2017-10-31T13:54:25.313Z,5.50
2017-10-31T13:56:53.658Z,4.80
2017-10-31T13:59:23.124Z,5.37
2017-10-31T14:01:51.647Z,5.20
2017-10-31T14:04:20.982Z,5.47
2017-10-31T14:06:49.603Z,5.47
2017-10-31T14:09:18.410Z,5.30
2017-10-31T14:11:47.830Z,5.73
2017-10-31T14:14:16.183Z,5.10
2017-10-31T14:16:45.299Z,4.83
2017-10-31T14:19:13.703Z,5.07
2017-10-31T14:21:47.010Z,5.27
2017-10-31T14:24:15.383Z,5.60
2017-10-31T14:26:44.535Z,5.03
2017-10-31T14:29:12.888Z,5.90
2017-10-31T14:31:41.498Z,5.67
2017-10-31T14:34:09.929Z,6.10
2017-10-31T14:36:38.299Z,5.63
2017-10-31T14:39:06.659Z,5.47
2017-10-31T14:41:35.991Z,6.07
2017-10-31T14:44:04.363Z,6.00
2017-10-31T14:46:34.695Z,4.93
2017-10-31T14:49:02.727Z,5.47
2017-10-31T14:51:31.089Z,5.83
2017-10-31T14:54:00.430Z,5.60
2017-10-31T14:56:28.814Z,6.50
2017-10-31T14:58:57.419Z,5.90
2017-10-31T15:01:26.807Z,5.73
2017-10-31T15:03:55.191Z,5.97
2017-10-31T15:06:24.315Z,5.80
2017-10-31T15:08:53.216Z,5.83
2017-10-31T15:11:21.579Z,5.90
2017-10-31T15:13:49.926Z,6.43
2017-10-31T15:16:18.283Z,5.83
2017-10-31T15:18:46.646Z,5.87
2017-10-31T15:21:15.994Z,5.33
2017-10-31T15:23:45.105Z,6.47
2017-10-31T15:26:13.847Z,6.00
2017-10-31T15:28:42.202Z,6.23
2017-10-31T15:31:10.556Z,6.40
2017-10-31T15:33:38.945Z,6.87
2017-10-31T15:36:07.299Z,7.10
2017-10-31T15:38:35.916Z,6.80
2017-10-31T15:41:03.954Z,7.10
2017-10-31T15:43:32.310Z,7.20
2017-10-31T15:46:00.666Z,7.23
2017-10-31T15:48:28.359Z,7.00
2017-10-31T15:50:57.475Z,7.47
2017-10-31T15:53:25.846Z,6.83
2017-10-31T15:55:54.219Z,6.43
2017-10-31T15:58:22.567Z,5.97
2017-10-31T16:00:50.935Z,6.40
2017-10-31T16:03:19.427Z,5.50
2017-10-31T16:05:47.794Z,5.53
2017-10-31T16:08:16.166Z,5.80
2017-10-31T16:10:44.546Z,4.57
2017-10-31T16:13:13.157Z,5.40
2017-10-31T16:15:42.283Z,5.63
2017-10-31T16:18:10.667Z,5.53
2017-10-31T16:20:40.053Z,5.47
2017-10-31T16:23:08.398Z,5.90
2017-10-31T16:25:37.546Z,5.60
2017-10-31T16:28:05.905Z,5.90
2017-10-31T16:30:34.251Z,5.47
2017-10-31T16:33:03.727Z,6.57
2017-10-31T16:35:32.088Z,6.33
2017-10-31T16:38:00.435Z,6.03
2017-10-31T16:40:28.895Z,6.60
2017-10-31T16:42:57.506Z,6.33
2017-10-31T16:45:25.903Z,5.67
2017-10-31T16:47:54.263Z,5.37
2017-10-31T16:50:22.605Z,5.60
2017-10-31T16:52:51.744Z,5.83
2017-10-31T16:55:20.099Z,5.70
2017-10-31T16:57:48.281Z,5.53
2017-10-31T17:00:16.661Z,5.97
2017-10-31T17:02:45.262Z,5.60
2017-10-31T17:05:14.636Z,5.90
2017-10-31T17:07:42.986Z,6.10
2017-10-31T17:10:12.102Z,5.50
2017-10-31T17:12:40.485Z,6.07
2017-10-31T17:15:08.826Z,5.43
2017-10-31T17:17:37.180Z,5.57
2017-10-31T17:20:05.654Z,5.50
2017-10-31T17:22:34.019Z,5.37
2017-10-31T17:25:03.353Z,6.07
2017-10-31T17:27:31.780Z,6.50
2017-10-31T17:30:01.134Z,5.73
2017-10-31T17:32:32.911Z,6.00
2017-10-31T17:35:02.027Z,6.20
2017-10-31T17:37:30.403Z,6.50
2017-10-31T17:39:58.798Z,6.70
2017-10-31T17:42:28.196Z,7.00
2017-10-31T17:44:56.799Z,7.17
2017-10-31T17:47:25.167Z,6.70
2017-10-31T17:49:53.571Z,6.93
2017-10-31T17:52:22.878Z,6.43
2017-10-31T17:54:51.239Z,7.03
2017-10-31T17:57:19.639Z,7.80
2017-10-31T17:59:47.986Z,7.30
2017-10-31T18:02:16.344Z,9.97
2017-10-31T18:04:44.816Z,8.50
2017-10-31T18:07:13.168Z,9.87
2017-10-31T18:09:42.282Z,7.57
2017-10-31T18:12:10.652Z,6.43
2017-10-31T18:14:39.899Z,6.70
2017-10-31T18:17:10.235Z,6.43
2017-10-31T18:19:38.847Z,6.23
2017-10-31T18:22:08.008Z,6.67
2017-10-31T18:24:36.359Z,6.57
2017-10-31T18:27:04.743Z,6.80
2017-10-31T18:29:33.118Z,7.13
2017-10-31T18:32:01.476Z,6.57
2017-10-31T18:34:29.853Z,6.97
2017-10-31T18:36:59.210Z,6.57
2017-10-31T18:39:27.618Z,6.80
2017-10-31T18:41:57.023Z,6.43
2017-10-31T18:44:25.379Z,6.53
2017-10-31T18:46:55.515Z,7.13
2017-10-31T18:49:24.647Z,6.67
2017-10-31T18:51:53.979Z,6.13
2017-10-31T18:54:22.351Z,6.27
2017-10-31T18:56:50.571Z,6.47
2017-10-31T18:59:18.914Z,7.20
2017-10-31T19:01:48.204Z,6.67
2017-10-31T19:04:16.593Z,6.70
2017-10-31T19:06:45.943Z,7.13
2017-10-31T19:09:14.298Z,6.73
2017-10-31T19:11:42.723Z,7.20
2017-10-31T19:14:11.079Z,7.67
2017-10-31T19:16:41.452Z,7.80
2017-10-31T19:19:10.127Z,8.53
2017-10-31T19:21:38.508Z,7.20
2017-10-31T19:24:06.857Z,6.97
2017-10-31T19:26:36.293Z,6.40
2017-10-31T19:29:04.657Z,7.20
2017-10-31T19:31:34.002Z,6.40
2017-10-31T19:34:02.359Z,6.87
2017-10-31T19:36:31.534Z,6.53
2017-10-31T19:38:59.992Z,6.73
2017-10-31T19:41:28.342Z,6.77
2017-10-31T19:43:56.718Z,7.03
2017-10-31T19:46:25.157Z,6.60
2017-10-31T19:48:54.274Z,6.93
2017-10-31T19:51:22.627Z,6.17
2017-10-31T19:53:51.015Z,6.40
2017-10-31T19:56:20.136Z,6.20
2017-10-31T19:58:48.298Z,6.17
2017-10-31T20:01:16.696Z,6.90
2017-10-31T20:03:44.712Z,7.03
2017-10-31T20:06:13.122Z,8.23
2017-10-31T20:08:41.676Z,7.67
2017-10-31T20:11:12.628Z,6.77
2017-10-31T20:13:41.752Z,6.63
2017-10-31T20:16:10.420Z,7.57
2017-10-31T20:18:39.107Z,6.90
2017-10-31T20:21:07.475Z,7.60
2017-10-31T20:23:36.628Z,8.27
2017-10-31T20:26:05.820Z,7.07
2017-10-31T20:28:34.174Z,7.13
2017-10-31T20:31:04.541Z,9.23
2017-10-31T20:33:32.336Z,7.67
2017-10-31T20:36:02.269Z,7.77
2017-10-31T20:38:30.655Z,8.13
2017-10-31T20:40:59.106Z,7.33
2017-10-31T20:43:28.226Z,7.10
2017-10-31T20:45:56.578Z,7.67
2017-10-31T20:48:25.722Z,7.83
2017-10-31T20:50:55.109Z,8.17
2017-10-31T20:53:23.635Z,7.20
2017-10-31T20:55:52.191Z,7.97
2017-10-31T20:58:20.549Z,7.23
2017-10-31T21:00:50.049Z,8.03
2017-10-31T21:03:19.704Z,7.23
2017-10-31T21:05:48.057Z,6.90
2017-10-31T21:08:16.441Z,6.90
2017-10-31T21:10:44.796Z,7.17
2017-10-31T21:13:13.195Z,7.07
2017-10-31T21:15:41.563Z,6.70
2017-10-31T21:18:10.686Z,7.00
2017-10-31T21:20:40.116Z,7.60
2017-10-31T21:23:08.474Z,7.10
2017-10-31T21:25:38.582Z,7.60
2017-10-31T21:28:06.994Z,8.07
2017-10-31T21:30:35.407Z,7.97
2017-10-31T21:33:03.762Z,8.00
2017-10-31T21:35:32.245Z,8.30
2017-10-31T21:38:01.139Z,7.93
2017-10-31T21:40:29.491Z,8.00
2017-10-31T21:42:57.896Z,8.63
2017-10-31T21:45:26.261Z,8.03
2017-10-31T21:47:54.615Z,7.37
2017-10-31T21:50:23.779Z,7.97
2017-10-31T21:52:52.136Z,7.60
2017-10-31T21:55:20.491Z,7.87
2017-10-31T21:57:49.391Z,7.30
2017-10-31T22:00:18.735Z,7.90
2017-10-31T22:02:47.098Z,6.87
2017-10-31T22:05:16.769Z,7.37
2017-10-31T22:07:45.120Z,7.80
2017-10-31T22:10:14.240Z,8.63
2017-10-31T22:12:42.623Z,7.93
2017-10-31T22:15:12.947Z,9.53
2017-10-31T22:17:41.298Z,9.33
2017-10-31T22:20:14.848Z,8.10
2017-10-31T22:22:43.205Z,8.07
2017-10-31T22:25:11.587Z,8.37
2017-10-31T22:27:39.971Z,6.90
2017-10-31T22:30:08.331Z,7.20
2017-10-31T22:32:36.686Z,7.60
2017-10-31T22:35:05.830Z,7.33
2017-10-31T22:37:34.211Z,7.37
2017-10-31T22:40:03.507Z,7.47
2017-10-31T22:42:31.903Z,6.77
2017-10-31T22:45:00.254Z,7.47
2017-10-31T22:47:28.620Z,8.07
2017-10-31T22:49:57.014Z,7.63
2017-10-31T22:52:25.365Z,7.97
2017-10-31T22:54:53.715Z,6.13
2017-10-31T22:57:22.855Z,7.83
2017-10-31T22:59:51.263Z,8.37
2017-10-31T23:02:19.616Z,9.13
2017-10-31T23:04:47.971Z,7.67
2017-10-31T23:07:16.353Z,8.37
2017-10-31T23:09:44.703Z,7.77
2017-10-31T23:12:13.830Z,8.07
2017-10-31T23:14:44.180Z,8.37
2017-10-31T23:17:12.546Z,8.67
2017-10-31T23:19:40.896Z,8.67
2017-10-31T23:22:09.286Z,7.07
2017-10-31T23:24:37.635Z,7.50
2017-10-31T23:27:06.755Z,7.23
2017-10-31T23:29:35.145Z,8.10
2017-10-31T23:32:03.495Z,30.73
2017-10-31T23:34:31.858Z,32.97
2017-10-31T23:37:01.023Z,15.50
2017-10-31T23:39:29.389Z,20.47
2017-10-31T23:41:58.762Z,16.20
2017-10-31T23:44:29.068Z,15.10
2017-10-31T23:46:58.207Z,13.10
2017-10-31T23:49:26.587Z,9.13
2017-10-31T23:51:54.936Z,9.53
2017-10-31T23:54:23.314Z,9.43
2017-10-31T23:56:51.715Z,8.33
2017-10-31T23:59:20.074Z,7.80
